Time;durP1;ratioP1;P1;durP2;ratioP2;P2;SDS_P1;SDS_P2;PMS_P1;PMS_P2;Temp;Humidity;BMP_temperature;BMP_pressure;BME280_temperature;BME280_humidity;BME280_pressure;Samples;Min_cycle;Max_cycle;Signal;HPM_P1;HPM_P2
2022/03/18 08:03:58;;;;;;;44.60;27.67;;;6.30;99.90;;;;;;5135795;27;20274;-81
2022/03/18 08:06:23;;;;;;;50.10;34.27;;;6.00;99.90;;;;;;5127419;28;20519;-80
2022/03/18 08:08:49;;;;;;;44.87;30.53;;;6.10;99.90;;;;;;5134619;27;20172;-80
2022/03/18 08:11:15;;;;;;;46.37;31.70;;;6.10;99.90;;;;;;5133152;28;20224;-80
2022/03/18 08:13:42;;;;;;;50.93;32.87;;;6.10;99.90;;;;;;5136025;27;20179;-80
2022/03/18 08:16:07;;;;;;;44.13;31.57;;;6.20;99.90;;;;;;5137193;27;20223;-80
2022/03/18 08:18:33;;;;;;;41.73;30.07;;;6.30;99.90;;;;;;5134644;28;20182;-81
2022/03/18 08:20:59;;;;;;;48.10;30.67;;;6.50;99.90;;;;;;5134792;28;20186;-80
2022/03/18 08:23:27;;;;;;;47.43;30.10;;;6.70;99.90;;;;;;5135774;28;20665;-81
2022/03/18 08:25:52;;;;;;;41.47;29.30;;;6.70;99.90;;;;;;5135600;28;20194;-82
2022/03/18 08:28:18;;;;;;;42.97;29.33;;;6.50;99.90;;;;;;5136412;28;20240;-80
2022/03/18 08:30:44;;;;;;;39.57;27.97;;;6.60;99.90;;;;;;5136953;27;20237;-81
2022/03/18 08:33:09;;;;;;;42.87;28.93;;;6.60;99.90;;;;;;5136466;27;20586;-81
2022/03/18 08:35:36;;;;;;;45.23;28.57;;;6.70;99.90;;;;;;5136725;27;20218;-81
2022/03/18 08:38:07;;;;;;;38.23;27.90;;;6.90;99.90;;;;;;5134857;27;20230;-81
2022/03/18 08:40:34;;;;;;;42.77;28.63;;;7.10;99.90;;;;;;5133276;28;20597;-79
2022/03/18 08:43:03;;;;;;;41.83;28.63;;;7.30;99.90;;;;;;5132553;28;20217;-80
2022/03/18 08:45:30;;;;;;;46.83;29.20;;;7.60;99.90;;;;;;5133992;27;20223;-80
2022/03/18 08:47:55;;;;;;;40.87;29.13;;;7.70;99.90;;;;;;5132499;28;20220;-80
2022/03/18 08:50:23;;;;;;;40.10;27.97;;;7.60;99.90;;;;;;5132368;28;20582;-80
2022/03/18 08:52:51;;;;;;;40.20;29.20;;;7.80;99.90;;;;;;5132324;28;20272;-80
2022/03/18 08:55:17;;;;;;;39.73;28.53;;;8.00;99.90;;;;;;5132802;28;20688;-80
2022/03/18 08:57:43;;;;;;;37.00;29.27;;;8.10;99.90;;;;;;5131660;28;20553;-80
2022/03/18 09:00:14;;;;;;;38.00;26.90;;;8.10;99.90;;;;;;5133570;27;20180;-80
2022/03/18 09:02:40;;;;;;;37.80;27.30;;;8.10;99.90;;;;;;5132267;28;20240;-81
2022/03/18 09:05:07;;;;;;;41.77;29.53;;;8.00;99.90;;;;;;5132248;28;20559;-81
2022/03/18 09:07:34;;;;;;;41.83;28.97;;;8.00;99.90;;;;;;5132139;28;20266;-81
2022/03/18 09:10:00;;;;;;;39.93;28.90;;;8.30;99.90;;;;;;5133298;27;20177;-81
2022/03/18 09:12:27;;;;;;;40.90;27.57;;;8.40;99.90;;;;;;5132257;28;20628;-80
2022/03/18 09:14:53;;;;;;;37.20;26.87;;;8.70;99.90;;;;;;5121425;27;20172;-80
2022/03/18 09:17:19;;;;;;;37.40;26.77;;;8.80;99.90;;;;;;5118494;28;20272;-81
2022/03/18 09:19:45;;;;;;;36.80;26.90;;;8.90;99.90;;;;;;5119964;28;20175;-81
2022/03/18 09:22:11;;;;;;;40.23;27.03;;;9.30;99.90;;;;;;5119344;28;20191;-81
2022/03/18 09:24:37;;;;;;;33.73;26.17;;;9.60;99.90;;;;;;5119108;28;20255;-81
2022/03/18 09:27:04;;;;;;;33.33;25.33;;;9.50;99.90;;;;;;5119861;28;20608;-81
2022/03/18 09:29:30;;;;;;;32.93;26.27;;;9.80;99.90;;;;;;5119232;28;20229;-81
2022/03/18 09:31:56;;;;;;;32.27;24.73;;;9.80;99.90;;;;;;5117864;28;20267;-80
2022/03/18 09:34:24;;;;;;;35.07;25.37;;;9.60;99.90;;;;;;5117984;28;20600;-80
2022/03/18 09:36:57;;;;;;;31.03;24.20;;;9.70;99.90;;;;;;5118410;28;20226;-80
2022/03/18 09:39:25;;;;;;;33.03;24.33;;;10.10;99.90;;;;;;5118150;28;20202;-80
2022/03/18 09:41:52;;;;;;;32.33;24.33;;;10.10;99.90;;;;;;5118516;28;20175;-80
2022/03/18 09:44:18;;;;;;;32.57;24.97;;;10.10;99.90;;;;;;5118435;28;20175;-80
2022/03/18 09:46:49;;;;;;;33.13;25.37;;;10.10;99.90;;;;;;5117283;28;20216;-81
2022/03/18 09:49:17;;;;;;;36.33;25.80;;;10.20;99.90;;;;;;5117173;28;20625;-80
2022/03/18 09:51:43;;;;;;;34.80;25.27;;;10.50;99.90;;;;;;5118618;28;20171;-78
2022/03/18 09:54:10;;;;;;;31.97;25.63;;;10.60;99.90;;;;;;5116830;28;20175;-80
2022/03/18 09:56:41;;;;;;;33.77;25.10;;;10.60;99.90;;;;;;5117237;28;20338;-80
2022/03/18 09:59:07;;;;;;;38.60;27.23;;;10.70;99.90;;;;;;5118854;28;20537;-80
2022/03/18 10:01:33;;;;;;;31.03;25.43;;;11.20;99.90;;;;;;5118528;28;20533;-80
2022/03/18 10:04:17;;;;;;;35.40;25.83;;;11.80;99.90;;;;;;5117938;28;20710;-80
2022/03/18 10:06:43;;;;;;;29.93;24.53;;;12.00;99.90;;;;;;5118487;28;20191;-80
2022/03/18 10:09:14;;;;;;;31.20;25.03;;;12.10;99.90;;;;;;5117313;28;20183;-79
2022/03/18 10:11:43;;;;;;;31.73;24.67;;;11.30;99.90;;;;;;5116746;28;20523;-79
2022/03/18 10:14:20;;;;;;;30.43;25.53;;;11.30;99.90;;;;;;5116667;28;20176;-79
2022/03/18 10:16:47;;;;;;;32.10;26.30;;;11.30;99.90;;;;;;5116742;28;20248;-79
2022/03/18 10:19:18;;;;;;;28.93;24.70;;;11.30;99.90;;;;;;5116513;28;20178;-80
2022/03/18 10:21:52;;;;;;;30.40;24.40;;;11.40;99.90;;;;;;5117977;28;20635;-80
2022/03/18 10:24:22;;;;;;;33.63;25.40;;;11.70;99.90;;;;;;5116798;28;20179;-80
2022/03/18 10:26:50;;;;;;;36.83;25.90;;;12.30;99.90;;;;;;5116429;28;20199;-79
2022/03/18 10:29:16;;;;;;;29.77;25.70;;;12.50;99.90;;;;;;5118356;28;20666;-79
2022/03/18 10:31:57;;;;;;;31.40;25.03;;;12.40;99.90;;;;;;5118511;28;20229;-80
2022/03/18 10:37:22;;;;;;;33.53;25.87;;;11.80;99.90;;;;;;5118822;28;20174;-80
2022/03/18 10:39:51;;;;;;;28.33;24.33;;;11.80;99.90;;;;;;5118096;28;20179;-80
2022/03/18 10:42:20;;;;;;;30.37;24.83;;;11.60;99.90;;;;;;5116819;28;20199;-80
2022/03/18 10:44:48;;;;;;;30.63;24.93;;;11.80;99.90;;;;;;5116774;28;20191;-80
2022/03/18 10:47:30;;;;;;;32.23;26.17;;;12.40;99.90;;;;;;5117961;27;20176;-79
2022/03/18 10:50:11;;;;;;;29.33;23.77;;;12.40;99.90;;;;;;5117498;28;20182;-82
2022/03/18 10:52:46;;;;;;;28.30;23.70;;;12.60;99.90;;;;;;5117655;28;20179;-82
2022/03/18 10:55:37;;;;;;;31.10;22.37;;;13.40;99.90;;;;;;5117285;28;20673;-80
2022/03/18 10:58:07;;;;;;;24.17;21.03;;;14.00;99.90;;;;;;5117112;28;20263;-80
2022/03/18 11:00:35;;;;;;;30.03;22.13;;;12.90;99.90;;;;;;5117642;28;20169;-80
2022/03/18 11:03:02;;;;;;;30.43;23.07;;;12.70;99.90;;;;;;5117762;28;20208;-81
2022/03/18 11:05:35;;;;;;;28.07;21.10;;;12.70;99.90;;;;;;5119104;28;20300;-79
2022/03/18 11:08:02;;;;;;;28.43;21.93;;;12.70;99.90;;;;;;5118499;28;20172;-81
2022/03/18 11:13:14;;;;;;;24.33;20.13;;;13.30;99.90;;;;;;5118482;28;20208;-80
2022/03/18 11:15:44;;;;;;;25.43;21.23;;;13.60;99.90;;;;;;5116803;28;20195;-80
2022/03/18 11:18:13;;;;;;;26.07;21.17;;;13.70;98.70;;;;;;5117260;28;20199;-81
2022/03/18 11:20:44;;;;;;;26.90;20.73;;;13.20;98.90;;;;;;5118553;28;20248;-84
2022/03/18 11:23:21;;;;;;;25.40;19.97;;;13.00;99.50;;;;;;5116915;28;20204;-79
2022/03/18 11:25:50;;;;;;;25.27;19.33;;;13.20;97.90;;;;;;5117509;28;20686;-81
2022/03/18 11:28:18;;;;;;;24.37;19.60;;;13.20;96.70;;;;;;5118370;28;20180;-80
2022/03/18 11:30:47;;;;;;;27.90;21.03;;;13.20;96.20;;;;;;5118951;28;20178;-85
2022/03/18 11:33:16;;;;;;;25.87;19.80;;;13.20;96.50;;;;;;5117422;28;20181;-80
2022/03/18 11:35:48;;;;;;;26.87;20.87;;;13.00;96.80;;;;;;5118860;28;20212;-78
2022/03/18 11:38:17;;;;;;;28.33;20.60;;;13.10;97.10;;;;;;5115988;28;20177;-79
2022/03/18 11:40:51;;;;;;;23.23;20.73;;;13.20;97.70;;;;;;5115376;28;20182;-80
2022/03/18 11:43:36;;;;;;;24.40;20.47;;;13.30;96.90;;;;;;5117188;28;20190;-80
2022/03/18 11:46:17;;;;;;;26.20;20.57;;;13.40;96.70;;;;;;5117070;28;20275;-80
2022/03/18 11:49:08;;;;;;;24.57;20.40;;;13.80;98.30;;;;;;5116880;28;20230;-80
2022/03/18 11:51:42;;;;;;;23.23;20.17;;;13.80;95.60;;;;;;5115727;28;20226;-77
2022/03/18 11:54:13;;;;;;;23.83;19.70;;;13.40;96.50;;;;;;5115846;28;20678;-79
2022/03/18 11:56:50;;;;;;;26.23;20.20;;;13.50;97.20;;;;;;5118504;28;20198;-78
2022/03/18 11:59:29;;;;;;;21.20;19.00;;;13.50;95.50;;;;;;5119629;28;20173;-80
2022/03/18 12:02:01;;;;;;;21.63;18.97;;;13.70;95.30;;;;;;5116960;28;20528;-79
2022/03/18 12:04:33;;;;;;;23.63;19.37;;;13.80;95.50;;;;;;5115872;28;20164;-80
2022/03/18 12:07:31;;;;;;;25.00;19.20;;;14.40;94.00;;;;;;5115220;28;20575;-79
2022/03/18 12:10:08;;;;;;;25.00;19.47;;;14.80;93.70;;;;;;5117351;28;20623;-79
2022/03/18 12:12:44;;;;;;;25.70;20.23;;;14.40;91.70;;;;;;5116517;28;20154;-79
2022/03/18 12:15:17;;;;;;;23.60;20.03;;;14.20;92.20;;;;;;5116109;28;20222;-78
2022/03/18 12:17:54;;;;;;;22.57;19.17;;;14.10;92.30;;;;;;5117281;28;20311;-78
2022/03/18 12:20:25;;;;;;;25.17;19.90;;;14.30;92.20;;;;;;5116903;28;20157;-79
2022/03/18 12:22:53;;;;;;;24.33;20.57;;;14.50;91.40;;;;;;5116571;28;20194;-79
2022/03/18 12:25:22;;;;;;;23.37;17.97;;;14.10;91.20;;;;;;5115628;28;20275;-79
2022/03/18 12:27:48;;;;;;;23.67;20.20;;;14.10;90.60;;;;;;5116179;28;20647;-80
2022/03/18 12:30:19;;;;;;;22.90;19.77;;;14.00;91.50;;;;;;5116336;28;20170;-79
2022/03/18 12:32:51;;;;;;;24.23;19.87;;;13.90;90.60;;;;;;5116913;28;20253;-79
2022/03/18 12:35:18;;;;;;;23.70;18.03;;;14.10;90.90;;;;;;5115980;28;20555;-79
2022/03/18 12:37:46;;;;;;;25.10;19.37;;;14.40;90.40;;;;;;5115442;28;20257;-80
2022/03/18 12:40:13;;;;;;;25.63;18.17;;;14.40;89.90;;;;;;5117310;28;20185;-79
2022/03/18 12:42:50;;;;;;;21.37;19.07;;;14.80;88.90;;;;;;5120723;28;20232;-81
2022/03/18 12:45:36;;;;;;;23.53;19.30;;;14.80;86.60;;;;;;5115292;28;20194;-79
2022/03/18 12:48:10;;;;;;;22.77;18.57;;;14.80;85.50;;;;;;5117622;28;20173;-79
2022/03/18 12:50:47;;;;;;;20.20;18.07;;;15.00;85.40;;;;;;5118960;28;20223;-79
2022/03/18 12:53:15;;;;;;;25.03;18.63;;;15.20;84.50;;;;;;5118600;28;20185;-79
2022/03/18 12:55:42;;;;;;;23.87;18.50;;;15.30;83.20;;;;;;5119145;28;20199;-80
2022/03/18 12:58:08;;;;;;;25.57;17.03;;;14.70;81.60;;;;;;5119311;28;20548;-80
2022/03/18 13:00:46;;;;;;;21.60;19.30;;;14.70;82.60;;;;;;5118565;28;20641;-79
2022/03/18 13:03:25;;;;;;;22.40;17.97;;;14.40;81.00;;;;;;5120226;28;20209;-79
2022/03/18 13:05:52;;;;;;;22.83;18.13;;;14.20;82.00;;;;;;5118216;28;20194;-79
2022/03/18 13:08:19;;;;;;;22.10;17.67;;;14.00;82.10;;;;;;5118842;28;20650;-81
2022/03/18 13:10:56;;;;;;;20.23;16.80;;;13.80;83.30;;;;;;5120192;28;20194;-80
2022/03/18 13:13:23;;;;;;;22.80;17.03;;;13.90;82.00;;;;;;5120641;28;20182;-79
2022/03/18 13:16:01;;;;;;;22.67;16.93;;;14.30;82.40;;;;;;5120346;28;20200;-80
2022/03/18 13:18:30;;;;;;;20.37;17.03;;;14.50;80.30;;;;;;5120695;28;20164;-79
2022/03/18 13:20:58;;;;;;;20.90;16.93;;;14.10;80.90;;;;;;5118634;28;20176;-79
2022/03/18 13:23:24;;;;;;;21.83;17.43;;;14.10;79.90;;;;;;5118346;28;20209;-80
2022/03/18 13:25:50;;;;;;;19.80;16.50;;;14.00;80.10;;;;;;5118295;28;20284;-78
2022/03/18 13:28:17;;;;;;;20.00;16.27;;;14.50;78.20;;;;;;5119953;28;20172;-79
2022/03/18 13:33:45;;;;;;;20.53;17.43;;;15.50;75.80;;;;;;5118899;28;20241;-80
2022/03/18 13:36:28;;;;;;;23.27;17.13;;;15.40;74.10;;;;;;5119756;27;20734;-80
2022/03/18 13:38:55;;;;;;;26.50;16.83;;;15.10;75.70;;;;;;5121651;28;20167;-84
2022/03/18 13:41:21;;;;;;;21.97;15.97;;;14.90;74.60;;;;;;5121160;28;20223;-77
2022/03/18 13:43:53;;;;;;;20.83;15.63;;;14.60;75.20;;;;;;5126027;28;20197;-79
2022/03/18 13:46:21;;;;;;;19.43;16.53;;;14.10;74.70;;;;;;5128106;28;20200;-79
2022/03/18 13:48:49;;;;;;;23.70;17.63;;;14.30;76.10;;;;;;5131261;28;20176;-82
2022/03/18 13:51:35;;;;;;;23.23;17.80;;;14.50;76.50;;;;;;5119101;28;20205;-80
2022/03/18 13:54:19;;;;;;;20.00;16.23;;;14.60;77.20;;;;;;5118854;28;20513;-80
2022/03/18 13:57:03;;;;;;;18.90;15.87;;;14.40;75.20;;;;;;5119043;28;20189;-79
2022/03/18 13:59:30;;;;;;;18.63;15.37;;;14.40;74.60;;;;;;5118123;28;20180;-79
2022/03/18 14:02:04;;;;;;;25.73;18.27;;;14.40;76.20;;;;;;5119998;28;20184;-80
2022/03/18 14:04:39;;;;;;;21.57;17.70;;;13.90;77.20;;;;;;5119541;28;20171;-78
2022/03/18 14:07:05;;;;;;;20.30;17.23;;;13.80;77.20;;;;;;5120100;28;20202;-80
2022/03/18 14:09:31;;;;;;;26.67;18.20;;;13.70;78.30;;;;;;5121365;28;20172;-81
2022/03/18 14:12:11;;;;;;;20.87;16.70;;;13.80;77.70;;;;;;5119948;28;20618;-79
2022/03/18 14:14:38;;;;;;;25.43;15.80;;;13.40;76.90;;;;;;5121636;28;20171;-80
2022/03/18 14:17:17;;;;;;;26.10;17.77;;;13.20;78.90;;;;;;5121425;28;20196;-80
2022/03/18 14:19:49;;;;;;;22.20;17.07;;;13.10;78.80;;;;;;5121311;28;20682;-81
2022/03/18 14:22:28;;;;;;;21.63;16.63;;;13.00;78.70;;;;;;5119295;28;20203;-80
2022/03/18 14:24:55;;;;;;;20.40;16.37;;;12.90;75.90;;;;;;5118849;28;20171;-80
2022/03/18 14:27:20;;;;;;;23.03;15.87;;;12.90;76.80;;;;;;5119261;28;20176;-79
2022/03/18 14:29:46;;;;;;;22.60;17.23;;;13.00;76.50;;;;;;5119986;28;20537;-80
2022/03/18 14:32:12;;;;;;;20.87;17.30;;;13.20;77.60;;;;;;5119800;28;20187;-80
2022/03/18 14:34:38;;;;;;;22.97;17.23;;;13.30;78.00;;;;;;5118660;28;20205;-80
2022/03/18 14:37:03;;;;;;;22.73;15.97;;;13.20;77.30;;;;;;5118483;28;20200;-79
2022/03/18 14:39:29;;;;;;;22.50;16.27;;;13.10;78.20;;;;;;5121727;28;20228;-80
2022/03/18 14:41:55;;;;;;;20.07;16.23;;;13.20;78.30;;;;;;5120451;28;20244;-79
2022/03/18 14:44:20;;;;;;;24.57;15.73;;;13.20;77.30;;;;;;5120342;28;20199;-81
2022/03/18 14:46:46;;;;;;;20.80;16.00;;;13.20;76.50;;;;;;5118498;28;20589;-80
2022/03/18 14:49:11;;;;;;;26.73;17.20;;;13.30;77.80;;;;;;5120627;28;20183;-80
2022/03/18 14:51:37;;;;;;;24.57;17.33;;;13.20;77.50;;;;;;5120295;28;20172;-79
2022/03/18 14:54:03;;;;;;;23.50;14.70;;;12.80;77.20;;;;;;5121591;28;20179;-79
2022/03/18 14:56:28;;;;;;;19.57;16.23;;;12.40;77.40;;;;;;5121457;28;20589;-79
2022/03/18 14:58:55;;;;;;;21.57;15.90;;;12.10;79.10;;;;;;5120269;28;20536;-80
2022/03/18 15:01:21;;;;;;;20.17;15.87;;;11.80;80.90;;;;;;5120498;28;20186;-81
2022/03/18 15:03:49;;;;;;;21.33;15.70;;;11.70;81.70;;;;;;5120706;28;20203;-82
2022/03/18 15:06:15;;;;;;;21.77;16.23;;;11.90;81.20;;;;;;5118517;28;20198;-81
2022/03/18 15:08:41;;;;;;;22.43;16.07;;;11.80;82.70;;;;;;5119227;28;20171;-82
2022/03/18 15:11:07;;;;;;;21.00;16.57;;;11.60;82.50;;;;;;5117113;28;20172;-80
2022/03/18 15:13:32;;;;;;;22.80;16.57;;;11.30;83.60;;;;;;5117936;28;20193;-80
2022/03/18 15:15:58;;;;;;;20.33;16.07;;;11.10;84.60;;;;;;5117216;28;20192;-84
2022/03/18 15:18:24;;;;;;;25.37;16.90;;;10.90;84.40;;;;;;5121644;28;20187;-81
2022/03/18 15:20:51;;;;;;;22.17;17.03;;;10.80;85.30;;;;;;5122372;28;20171;-84
2022/03/18 15:23:16;;;;;;;26.17;16.47;;;10.60;84.70;;;;;;5119522;28;20203;-82
2022/03/18 15:25:43;;;;;;;23.43;15.77;;;10.60;85.20;;;;;;5120031;28;20198;-82
2022/03/18 15:28:09;;;;;;;20.67;15.50;;;10.60;85.90;;;;;;5120295;28;20235;-85
2022/03/18 15:30:41;;;;;;;21.60;17.13;;;10.30;85.30;;;;;;5121881;28;20202;-83
2022/03/18 15:33:07;;;;;;;22.27;16.07;;;10.30;86.60;;;;;;5122986;28;20187;-82
2022/03/18 15:35:33;;;;;;;23.70;15.50;;;10.30;87.00;;;;;;5120167;28;20263;-82
2022/03/18 15:37:59;;;;;;;22.83;15.43;;;10.10;85.80;;;;;;5119066;28;20179;-81
2022/03/18 15:40:26;;;;;;;23.17;16.03;;;10.00;86.80;;;;;;5119165;28;20176;-82
2022/03/18 15:42:52;;;;;;;24.47;16.20;;;9.90;88.70;;;;;;5118701;28;20291;-81
2022/03/18 15:45:18;;;;;;;21.00;15.30;;;9.90;89.50;;;;;;5119547;28;20268;-81
2022/03/18 15:47:44;;;;;;;23.30;17.53;;;9.90;90.00;;;;;;5118564;28;20167;-80
2022/03/18 15:50:22;;;;;;;24.80;16.63;;;9.90;89.90;;;;;;5118072;28;20175;-84
2022/03/18 15:52:49;;;;;;;18.97;15.37;;;9.90;89.60;;;;;;5119253;28;20179;-82
2022/03/18 15:55:23;;;;;;;22.67;16.33;;;9.80;89.90;;;;;;5120716;28;20243;-82
2022/03/18 15:57:50;;;;;;;24.03;16.77;;;9.70;89.90;;;;;;5120275;28;20176;-82
2022/03/18 16:00:21;;;;;;;29.17;16.73;;;9.70;89.60;;;;;;5120360;28;20172;-81
2022/03/18 16:02:48;;;;;;;23.37;15.67;;;9.70;90.30;;;;;;5120669;28;20213;-84
2022/03/18 16:05:15;;;;;;;21.57;16.03;;;9.70;90.60;;;;;;5119865;28;20658;-82
2022/03/18 16:07:43;;;;;;;22.30;17.17;;;9.70;90.80;;;;;;5119058;28;20164;-81
2022/03/18 16:10:09;;;;;;;20.43;16.37;;;9.70;91.10;;;;;;5120580;28;20201;-81
2022/03/18 16:12:36;;;;;;;20.30;15.40;;;9.60;90.90;;;;;;5118437;28;20207;-80
2022/03/18 16:15:04;;;;;;;22.20;16.60;;;9.50;91.10;;;;;;5122489;28;20191;-82
2022/03/18 16:17:33;;;;;;;24.87;16.67;;;9.50;91.20;;;;;;5122394;28;20190;-82
2022/03/18 16:20:00;;;;;;;24.60;16.70;;;9.40;91.10;;;;;;5119055;28;20181;-83
2022/03/18 16:22:35;;;;;;;24.10;16.77;;;9.30;91.30;;;;;;5121024;28;20205;-82
2022/03/18 16:25:07;;;;;;;23.43;15.77;;;9.20;91.70;;;;;;5121611;28;20643;-83
2022/03/18 16:27:36;;;;;;;23.43;16.30;;;9.20;91.60;;;;;;5121479;28;20241;-81
2022/03/18 16:30:08;;;;;;;27.13;16.87;;;9.10;92.10;;;;;;5122191;28;20206;-81
2022/03/18 16:32:35;;;;;;;24.43;15.80;;;9.00;92.00;;;;;;5120546;28;20224;-80
2022/03/18 16:35:02;;;;;;;22.27;16.73;;;9.00;91.90;;;;;;5121756;28;20538;-80
2022/03/18 16:37:28;;;;;;;22.43;16.03;;;8.90;92.30;;;;;;5119011;28;20172;-80
2022/03/18 16:39:53;;;;;;;22.13;15.80;;;8.90;92.40;;;;;;5119891;28;20550;-80
2022/03/18 16:42:21;;;;;;;24.47;16.43;;;8.80;92.50;;;;;;5119199;28;20658;-80
2022/03/18 16:44:47;;;;;;;21.50;16.63;;;8.90;92.40;;;;;;5119742;28;20170;-79
2022/03/18 16:49:59;;;;;;;23.63;16.57;;;8.70;92.90;;;;;;5120182;28;20204;-81
2022/03/18 16:52:24;;;;;;;20.73;16.20;;;8.60;93.20;;;;;;5119108;28;20192;-80
2022/03/18 16:54:50;;;;;;;21.83;16.33;;;8.60;93.20;;;;;;5120257;28;20705;-79
2022/03/18 16:57:16;;;;;;;21.37;16.17;;;8.50;93.30;;;;;;5120119;28;20654;-80
2022/03/18 16:59:42;;;;;;;24.67;16.07;;;8.40;93.40;;;;;;5118974;28;20185;-81
2022/03/18 17:02:09;;;;;;;27.33;16.83;;;8.40;93.40;;;;;;5119065;28;20572;-81
2022/03/18 17:04:37;;;;;;;22.30;16.17;;;8.30;93.20;;;;;;5119300;28;20188;-83
2022/03/18 17:07:05;;;;;;;24.17;16.53;;;8.20;93.50;;;;;;5119574;28;20215;-82
2022/03/18 17:09:31;;;;;;;22.77;15.27;;;8.10;93.60;;;;;;5119907;28;20168;-82
2022/03/18 17:11:57;;;;;;;23.60;14.90;;;8.00;93.40;;;;;;5119301;28;20314;-84
2022/03/18 17:14:23;;;;;;;20.20;14.50;;;7.90;93.00;;;;;;5120187;28;20530;-81
2022/03/18 17:16:50;;;;;;;18.27;13.37;;;7.90;92.10;;;;;;5120368;28;20195;-80
2022/03/18 17:19:19;;;;;;;20.67;13.17;;;7.80;91.90;;;;;;5118689;28;20176;-79
2022/03/18 17:21:50;;;;;;;17.67;13.50;;;7.70;91.00;;;;;;5119838;28;20583;-82
2022/03/18 17:24:18;;;;;;;15.60;12.33;;;7.70;91.00;;;;;;5119113;28;20177;-82
2022/03/18 17:26:43;;;;;;;18.97;12.00;;;7.60;90.90;;;;;;5120223;28;20194;-82
2022/03/18 17:29:09;;;;;;;15.93;12.47;;;7.40;90.50;;;;;;5119349;28;20187;-80
2022/03/18 17:31:35;;;;;;;19.10;12.77;;;7.40;90.10;;;;;;5121702;28;20230;-82
2022/03/18 17:34:01;;;;;;;15.47;11.60;;;7.30;90.10;;;;;;5121319;28;20243;-82
2022/03/18 17:36:27;;;;;;;19.17;11.43;;;7.20;90.00;;;;;;5123772;28;20535;-83
2022/03/18 17:38:54;;;;;;;17.67;12.27;;;7.10;89.40;;;;;;5121440;28;20164;-83
2022/03/18 17:41:20;;;;;;;18.40;12.33;;;7.10;90.00;;;;;;5119329;28;20177;-82
2022/03/18 17:43:46;;;;;;;14.67;11.33;;;7.00;90.10;;;;;;5130618;28;20224;-81
2022/03/18 17:46:13;;;;;;;16.73;12.47;;;6.90;90.00;;;;;;5133878;28;20188;-82
2022/03/18 17:48:43;;;;;;;19.87;11.93;;;6.90;90.40;;;;;;5128558;28;20266;-80
2022/03/18 17:51:09;;;;;;;18.70;12.80;;;6.80;90.70;;;;;;5117286;28;20182;-81
2022/03/18 17:53:36;;;;;;;18.20;13.53;;;6.80;90.70;;;;;;5117115;28;20184;-82
2022/03/18 17:56:03;;;;;;;20.30;13.73;;;6.70;91.00;;;;;;5117589;28;20258;-82
2022/03/18 17:58:29;;;;;;;26.53;13.07;;;6.70;91.40;;;;;;5117373;28;20176;-81
2022/03/18 18:00:55;;;;;;;20.97;14.80;;;6.70;91.50;;;;;;5118331;28;20256;-82
2022/03/18 18:03:22;;;;;;;19.43;14.20;;;6.60;91.70;;;;;;5116398;28;20208;-81
2022/03/18 18:05:48;;;;;;;19.17;14.33;;;6.60;91.90;;;;;;5118294;28;20301;-81
2022/03/18 18:08:17;;;;;;;20.77;13.57;;;6.50;92.20;;;;;;5116047;28;20182;-81
2022/03/18 18:10:47;;;;;;;20.67;14.93;;;6.50;92.40;;;;;;5116872;28;20204;-81
2022/03/18 18:13:13;;;;;;;20.80;15.07;;;6.40;92.60;;;;;;5118087;28;20213;-81
2022/03/18 18:15:39;;;;;;;20.57;15.23;;;6.30;92.80;;;;;;5119044;28;20196;-81
2022/03/18 18:18:06;;;;;;;26.17;15.90;;;6.30;92.80;;;;;;5125332;27;20194;-80
2022/03/18 18:23:16;;;;;;;24.60;14.80;;;6.30;93.10;;;;;;5120708;28;20192;-80
2022/03/18 18:25:44;;;;;;;21.47;15.43;;;6.20;93.20;;;;;;5121227;28;20195;-82
2022/03/18 18:28:11;;;;;;;21.63;15.67;;;6.20;93.30;;;;;;5127622;27;20176;-81
2022/03/18 18:30:37;;;;;;;18.03;13.83;;;6.20;93.90;;;;;;5140843;27;20194;-80
2022/03/18 18:33:04;;;;;;;24.00;16.17;;;6.10;93.80;;;;;;5140869;27;20632;-81
2022/03/18 18:35:32;;;;;;;25.80;16.10;;;6.10;94.00;;;;;;5121313;27;20203;-81
2022/03/18 18:38:01;;;;;;;21.70;14.63;;;6.00;94.30;;;;;;5119773;28;20212;-81
2022/03/18 18:40:29;;;;;;;21.97;15.43;;;6.00;94.30;;;;;;5119836;28;20179;-81
2022/03/18 18:43:04;;;;;;;23.00;16.00;;;5.90;94.30;;;;;;5133720;27;20628;-81
2022/03/18 18:45:30;;;;;;;24.23;15.10;;;5.90;94.60;;;;;;5121210;27;20455;-79
2022/03/18 18:47:56;;;;;;;21.03;15.13;;;5.90;94.80;;;;;;5120764;28;20177;-80
2022/03/18 18:50:22;;;;;;;21.57;15.17;;;5.90;94.90;;;;;;5121095;28;20240;-80
2022/03/18 18:52:48;;;;;;;20.43;14.00;;;5.80;94.90;;;;;;5120078;28;20577;-81
2022/03/18 18:55:18;;;;;;;23.37;16.07;;;5.80;94.90;;;;;;5120087;28;20207;-81
2022/03/18 18:57:44;;;;;;;25.33;14.30;;;5.80;95.10;;;;;;5120121;28;20168;-80
2022/03/18 19:00:10;;;;;;;18.80;14.23;;;5.80;95.20;;;;;;5121284;28;20177;-80
2022/03/18 19:02:37;;;;;;;23.13;14.50;;;5.70;95.00;;;;;;5120737;28;20264;-81
2022/03/18 19:05:03;;;;;;;19.13;14.23;;;5.70;94.50;;;;;;5119672;28;20227;-81
2022/03/18 19:07:29;;;;;;;19.63;13.43;;;5.70;94.70;;;;;;5120065;28;20168;-80
2022/03/18 19:09:55;;;;;;;19.63;13.30;;;5.70;94.50;;;;;;5119704;28;20221;-81
2022/03/18 19:12:21;;;;;;;17.40;12.87;;;5.70;94.20;;;;;;5119966;28;20823;-83
2022/03/18 19:14:47;;;;;;;22.83;13.97;;;5.80;93.30;;;;;;5120775;28;20421;-82
2022/03/18 19:17:13;;;;;;;24.93;13.17;;;5.80;93.60;;;;;;5120628;28;20203;-82
2022/03/18 19:19:40;;;;;;;16.87;12.50;;;5.90;93.60;;;;;;5122840;28;20415;-83
2022/03/18 19:22:08;;;;;;;20.30;12.03;;;5.90;93.10;;;;;;5120285;28;20180;-81
2022/03/18 19:24:34;;;;;;;21.70;13.10;;;5.90;92.90;;;;;;5120664;28;20176;-82
2022/03/18 19:27:00;;;;;;;22.27;13.37;;;5.90;93.00;;;;;;5123021;28;20183;-81
2022/03/18 19:29:26;;;;;;;19.87;13.80;;;5.90;92.90;;;;;;5119467;28;20766;-83
2022/03/18 19:34:35;;;;;;;18.60;12.33;;;5.90;92.80;;;;;;5120536;28;20221;-83
2022/03/18 19:37:02;;;;;;;17.57;12.63;;;5.90;92.90;;;;;;5120254;28;20196;-82
2022/03/18 19:39:27;;;;;;;16.67;11.90;;;5.90;92.60;;;;;;5120063;28;20182;-81
2022/03/18 19:41:54;;;;;;;20.10;13.17;;;6.00;92.60;;;;;;5120750;28;20171;-82
2022/03/18 19:44:20;;;;;;;19.70;12.77;;;6.00;93.10;;;;;;5120162;28;20186;-81
2022/03/18 19:46:46;;;;;;;15.27;12.00;;;5.90;93.10;;;;;;5120397;28;20207;-82
2022/03/18 19:49:14;;;;;;;19.17;13.27;;;6.00;93.00;;;;;;5119726;28;20180;-81
2022/03/18 19:51:40;;;;;;;16.73;11.83;;;5.90;93.10;;;;;;5122723;28;20156;-81
2022/03/18 19:54:06;;;;;;;17.60;12.47;;;5.80;93.40;;;;;;5122293;28;20176;-82
2022/03/18 20:02:00;;;;;;;15.13;12.67;;;5.80;93.60;;;;;;5119534;28;20687;-81
2022/03/18 20:04:25;;;;;;;17.70;12.83;;;5.80;93.80;;;;;;5119088;28;20422;-81
2022/03/18 20:06:51;;;;;;;18.57;12.70;;;5.70;93.70;;;;;;5121121;28;20255;-80
2022/03/18 20:09:17;;;;;;;20.23;12.07;;;5.70;94.30;;;;;;5120997;28;20626;-81
2022/03/18 20:11:42;;;;;;;19.57;12.93;;;5.60;94.30;;;;;;5120506;28;20263;-81
2022/03/18 20:14:12;;;;;;;19.73;12.23;;;5.50;94.50;;;;;;5119931;28;20714;-80
2022/03/18 20:16:40;;;;;;;15.90;12.63;;;5.50;94.70;;;;;;5117340;28;20676;-81
2022/03/18 20:19:05;;;;;;;20.70;12.80;;;5.40;95.20;;;;;;5120766;28;20167;-82
2022/03/18 20:21:31;;;;;;;17.20;12.67;;;5.40;95.40;;;;;;5120162;28;20178;-81
2022/03/18 20:23:57;;;;;;;25.33;14.70;;;5.30;95.70;;;;;;5120530;28;20202;-82
2022/03/18 20:26:23;;;;;;;20.50;13.87;;;5.20;95.90;;;;;;5120697;28;20196;-83
2022/03/18 20:28:49;;;;;;;20.37;12.93;;;5.30;96.40;;;;;;5122393;28;20728;-83
2022/03/18 20:31:14;;;;;;;19.27;13.17;;;5.10;97.10;;;;;;5124349;28;20176;-83
2022/03/18 20:33:40;;;;;;;20.50;13.87;;;;;;;;;;5123445;28;20183;-83
2022/03/18 20:36:06;;;;;;;18.77;13.03;;;5.00;96.90;;;;;;5126845;28;20196;-83
2022/03/18 20:38:33;;;;;;;17.77;13.27;;;5.00;97.20;;;;;;5124641;28;20413;-81
2022/03/18 20:40:59;;;;;;;19.37;13.97;;;5.00;97.20;;;;;;5124009;28;20366;-80
2022/03/18 20:43:26;;;;;;;19.83;13.67;;;5.00;97.20;;;;;;5123058;28;20861;-81
2022/03/18 20:45:55;;;;;;;19.07;13.70;;;5.00;97.20;;;;;;5124334;28;20211;-82
2022/03/18 20:48:21;;;;;;;21.50;13.43;;;5.10;97.30;;;;;;5123362;28;20258;-82
2022/03/18 20:50:47;;;;;;;22.90;14.07;;;5.00;97.00;;;;;;5117910;28;20402;-82
2022/03/18 20:53:13;;;;;;;23.10;14.73;;;5.10;97.20;;;;;;5115763;28;20498;-82
2022/03/18 20:55:39;;;;;;;23.17;15.03;;;5.10;97.30;;;;;;5116897;28;20202;-82
2022/03/18 20:58:06;;;;;;;20.40;14.27;;;5.10;97.30;;;;;;5116831;28;20183;-82
2022/03/18 21:00:33;;;;;;;20.80;12.77;;;5.10;97.40;;;;;;5115495;28;20186;-82
2022/03/18 21:03:01;;;;;;;18.83;12.90;;;5.00;97.40;;;;;;5116827;28;20465;-82
2022/03/18 21:05:26;;;;;;;19.17;13.27;;;5.00;97.60;;;;;;5114305;28;20823;-81